createdAt,value
2022-12-19T00:01:04.698Z,10.65
2022-12-19T00:03:39.206Z,12.50
2022-12-19T00:06:13.248Z,9.18
2022-12-19T00:08:47.845Z,10.70
2022-12-19T00:11:24.135Z,11.23
2022-12-19T00:13:57.398Z,12.30
2022-12-19T00:16:31.328Z,13.02
2022-12-19T00:19:05.889Z,10.38
2022-12-19T00:21:40.435Z,13.05
2022-12-19T00:24:20.932Z,12.85
2022-12-19T00:26:54.738Z,11.15
2022-12-19T00:29:29.567Z,9.10
2022-12-19T00:32:02.856Z,11.00
2022-12-19T00:34:37.379Z,12.40
2022-12-19T00:37:11.905Z,13.57
2022-12-19T00:39:45.117Z,7.72
2022-12-19T00:42:20.409Z,10.73
2022-12-19T00:44:55.182Z,13.73
2022-12-19T00:47:32.055Z,12.63
2022-12-19T00:50:08.519Z,11.77
2022-12-19T00:52:41.657Z,9.23
2022-12-19T00:55:18.807Z,11.27
2022-12-19T00:57:52.653Z,10.80
2022-12-19T01:00:28.497Z,10.20
2022-12-19T01:03:02.934Z,9.50
2022-12-19T01:05:41.226Z,9.32
2022-12-19T01:08:15.343Z,9.82
2022-12-19T01:10:51.628Z,10.93
2022-12-19T01:13:25.201Z,9.68
2022-12-19T01:16:02.840Z,12.80
2022-12-19T01:18:36.503Z,9.18
2022-12-19T01:21:12.509Z,16.08
2022-12-19T01:23:45.733Z,11.50
2022-12-19T01:26:20.000Z,11.60
2022-12-19T01:28:53.980Z,10.93
2022-12-19T01:31:27.350Z,10.73
2022-12-19T01:34:01.938Z,10.95
2022-12-19T01:36:40.114Z,10.68
2022-12-19T01:39:13.564Z,12.75
2022-12-19T01:41:46.756Z,12.07
2022-12-19T01:44:19.906Z,11.65
2022-12-19T01:46:57.535Z,12.05
2022-12-19T01:49:34.332Z,12.25
2022-12-19T01:52:19.498Z,11.40
2022-12-19T01:54:57.079Z,10.80
2022-12-19T01:57:32.049Z,12.85
2022-12-19T02:00:09.918Z,8.57
2022-12-19T02:02:51.921Z,9.30
2022-12-19T02:05:25.238Z,11.80
2022-12-19T02:08:02.043Z,11.13
2022-12-19T02:10:36.215Z,9.18
2022-12-19T02:13:09.711Z,11.18
2022-12-19T02:15:56.289Z,8.45
2022-12-19T02:18:41.116Z,10.02
2022-12-19T02:21:32.324Z,10.48
2022-12-19T02:24:50.683Z,12.05
2022-12-19T02:28:01.461Z,10.75
2022-12-19T02:30:50.852Z,10.30
2022-12-19T02:33:31.728Z,11.55
2022-12-19T02:36:13.549Z,10.30
2022-12-19T02:38:54.875Z,9.82
2022-12-19T02:41:43.234Z,12.73
2022-12-19T02:44:26.360Z,10.95
2022-12-19T02:47:03.558Z,14.73
2022-12-19T02:49:39.147Z,11.18
2022-12-19T02:52:34.301Z,9.90
2022-12-19T02:55:12.228Z,7.68
2022-12-19T02:57:59.323Z,10.80
2022-12-19T03:00:38.295Z,11.07
2022-12-19T03:03:21.870Z,7.72
2022-12-19T03:06:04.869Z,10.65
2022-12-19T03:08:44.873Z,8.65
2022-12-19T03:11:19.431Z,10.45
2022-12-19T03:13:58.506Z,10.93
2022-12-19T03:16:31.948Z,11.20
2022-12-19T03:21:45.249Z,10.35
2022-12-19T03:24:20.001Z,9.38
2022-12-19T03:26:57.161Z,7.10
2022-12-19T03:29:33.432Z,12.35
2022-12-19T03:32:11.545Z,8.93
2022-12-19T03:34:50.334Z,11.13
2022-12-19T03:37:26.766Z,11.43
2022-12-19T03:40:03.172Z,10.95
2022-12-19T03:42:56.303Z,9.85
2022-12-19T03:45:34.945Z,9.13
2022-12-19T03:48:11.969Z,9.15
2022-12-19T03:50:54.316Z,10.07
2022-12-19T03:53:41.423Z,9.02
2022-12-19T03:56:22.047Z,9.05
2022-12-19T03:59:01.896Z,11.25
2022-12-19T04:01:36.420Z,10.35
2022-12-19T04:04:11.123Z,11.20
2022-12-19T04:06:47.769Z,8.98
2022-12-19T04:09:23.619Z,9.77
2022-12-19T04:12:01.656Z,8.80
2022-12-19T04:14:37.880Z,9.13
2022-12-19T04:17:20.856Z,10.23
2022-12-19T04:20:01.238Z,12.23
2022-12-19T04:22:39.800Z,10.40
2022-12-19T04:25:16.068Z,10.05
2022-12-19T04:27:54.566Z,10.52
2022-12-19T04:30:27.935Z,11.10
2022-12-19T04:35:35.562Z,11.30
2022-12-19T04:38:10.400Z,11.60
2022-12-19T04:40:43.679Z,10.05
2022-12-19T04:43:16.885Z,11.38
2022-12-19T04:45:55.543Z,12.45
2022-12-19T04:48:30.436Z,12.30
2022-12-19T04:51:03.682Z,11.43
2022-12-19T04:53:38.309Z,14.73
2022-12-19T04:56:12.082Z,10.23
2022-12-19T05:01:18.542Z,14.35
2022-12-19T05:03:55.742Z,13.45
2022-12-19T05:06:30.775Z,13.40
2022-12-19T05:09:05.524Z,21.17
2022-12-19T05:11:39.213Z,15.65
2022-12-19T05:14:12.619Z,20.52
2022-12-19T05:16:45.767Z,16.33
2022-12-19T05:19:21.638Z,14.18
2022-12-19T05:21:54.906Z,15.55
2022-12-19T05:24:31.885Z,13.73
2022-12-19T05:27:05.455Z,11.55
2022-12-19T05:29:38.676Z,12.52
2022-12-19T05:32:11.878Z,14.82
2022-12-19T05:34:45.009Z,13.00
2022-12-19T05:37:20.711Z,14.75
2022-12-19T05:39:55.963Z,14.98
2022-12-19T05:42:29.144Z,12.90
2022-12-19T05:45:02.353Z,14.77
2022-12-19T05:47:37.907Z,12.05
2022-12-19T05:50:11.670Z,12.13
2022-12-19T05:52:45.330Z,14.10
2022-12-19T05:55:20.020Z,15.82
2022-12-19T05:57:53.190Z,14.18
2022-12-19T06:00:26.798Z,16.17
2022-12-19T06:03:00.169Z,12.55
2022-12-19T06:05:33.693Z,15.38
2022-12-19T06:08:07.228Z,10.60
2022-12-19T06:10:41.809Z,12.63
2022-12-19T06:13:15.220Z,15.13
2022-12-19T06:15:48.459Z,13.68
2022-12-19T06:18:21.828Z,12.20
2022-12-19T06:20:59.367Z,16.33
2022-12-19T06:23:34.548Z,12.90
2022-12-19T06:26:18.273Z,17.88
2022-12-19T06:28:53.746Z,14.25
2022-12-19T06:31:27.029Z,13.98
2022-12-19T06:34:00.247Z,15.00
2022-12-19T06:36:33.425Z,18.60
2022-12-19T06:39:06.691Z,13.57
2022-12-19T06:41:58.767Z,13.63
2022-12-19T06:44:33.101Z,12.98
2022-12-19T06:47:06.353Z,15.25
2022-12-19T06:49:39.547Z,15.52
2022-12-19T06:52:12.719Z,15.65
2022-12-19T06:54:45.898Z,17.13
2022-12-19T06:57:20.391Z,13.18
2022-12-19T06:59:53.555Z,15.32
2022-12-19T07:02:31.178Z,26.90
2022-12-19T07:05:08.032Z,19.98
2022-12-19T07:07:41.752Z,13.50
2022-12-19T07:10:15.752Z,17.38
2022-12-19T07:12:50.387Z,15.20
2022-12-19T07:15:23.765Z,17.48
2022-12-19T07:17:58.873Z,14.93
2022-12-19T07:20:34.831Z,16.05
2022-12-19T07:23:09.002Z,21.17
2022-12-19T07:25:42.220Z,19.42
2022-12-19T07:28:17.739Z,19.23
2022-12-19T07:30:50.981Z,21.13
2022-12-19T07:33:24.168Z,15.00
2022-12-19T07:35:57.387Z,14.73
2022-12-19T07:38:30.552Z,19.77
2022-12-19T07:41:03.732Z,20.88
2022-12-19T07:43:38.270Z,22.55
2022-12-19T07:46:11.531Z,24.92
2022-12-19T07:48:44.774Z,21.40
2022-12-19T07:51:17.989Z,20.40
2022-12-19T07:53:51.152Z,23.05
2022-12-19T07:56:24.334Z,17.10
2022-12-19T07:59:01.247Z,23.10
2022-12-19T08:01:34.830Z,20.02
2022-12-19T08:04:08.221Z,27.30
2022-12-19T08:06:41.718Z,17.00
2022-12-19T08:09:15.427Z,48.72
2022-12-19T08:11:49.003Z,58.95
2022-12-19T08:14:23.651Z,44.17
2022-12-19T08:17:19.691Z,42.97
2022-12-19T08:19:50.005Z,41.80
2022-12-19T08:22:24.016Z,48.60
2022-12-19T08:24:57.671Z,44.30
2022-12-19T08:27:30.970Z,37.15
2022-12-19T08:30:06.367Z,37.58
2022-12-19T08:32:42.125Z,33.88
2022-12-19T08:35:15.271Z,34.53
2022-12-19T08:37:48.580Z,35.92
2022-12-19T08:40:23.294Z,32.80
2022-12-19T08:42:56.629Z,34.13
2022-12-19T08:45:31.413Z,32.05
2022-12-19T08:48:04.821Z,26.08
2022-12-19T08:50:37.990Z,29.17
2022-12-19T08:53:11.127Z,25.73
2022-12-19T08:55:44.433Z,38.03
2022-12-19T08:58:17.621Z,27.80
2022-12-19T09:00:57.513Z,29.95
2022-12-19T09:03:43.506Z,27.08
2022-12-19T09:06:26.889Z,31.98
2022-12-19T09:09:00.719Z,27.83
2022-12-19T09:14:09.355Z,23.30
2022-12-19T09:16:43.958Z,24.70
2022-12-19T09:19:18.159Z,26.85
2022-12-19T09:21:51.462Z,25.42
2022-12-19T09:24:24.659Z,29.30
2022-12-19T09:26:57.820Z,24.20
2022-12-19T09:29:35.382Z,25.27
2022-12-19T09:32:10.333Z,28.92
2022-12-19T09:34:43.542Z,28.52
2022-12-19T09:37:17.861Z,25.75
2022-12-19T09:39:51.331Z,26.30
2022-12-19T09:42:53.347Z,24.08
2022-12-19T09:45:37.921Z,27.52
2022-12-19T09:48:17.738Z,23.85
2022-12-19T09:51:09.746Z,23.83
2022-12-19T09:53:57.140Z,20.63
2022-12-19T09:56:46.258Z,23.90
2022-12-19T09:59:28.277Z,24.13
2022-12-19T10:02:34.221Z,24.65
2022-12-19T10:08:18.672Z,23.35
2022-12-19T10:12:39.192Z,25.55
2022-12-19T10:14:07.797Z,16.63
2022-12-19T10:17:22.767Z,21.80
2022-12-19T10:19:57.632Z,24.33
2022-12-19T10:22:57.198Z,24.30
2022-12-19T10:25:38.619Z,27.48
2022-12-19T10:28:28.940Z,21.92
2022-12-19T10:31:21.041Z,22.98
2022-12-19T10:34:00.558Z,21.40
2022-12-19T10:37:12.836Z,20.55
2022-12-19T10:39:49.560Z,23.35
2022-12-19T10:42:37.575Z,20.73
2022-12-19T10:45:15.440Z,24.48
2022-12-19T10:47:50.791Z,23.88
2022-12-19T10:50:27.660Z,23.33
2022-12-19T10:53:08.673Z,22.95
2022-12-19T10:55:47.875Z,26.55
2022-12-19T10:58:24.265Z,17.70
2022-12-19T11:01:05.976Z,22.23
2022-12-19T11:03:40.467Z,24.15
2022-12-19T11:06:49.541Z,38.15
2022-12-19T11:09:29.971Z,22.73
2022-12-19T11:14:50.020Z,21.58
2022-12-19T11:19:13.604Z,20.23
2022-12-19T11:27:19.953Z,22.52
2022-12-19T11:29:44.793Z,31.33
2022-12-19T11:30:09.324Z,20.55
2022-12-19T11:30:41.128Z,24.67
2022-12-19T11:33:13.143Z,18.17
2022-12-19T11:35:51.697Z,24.73
2022-12-19T11:38:36.719Z,19.67
2022-12-19T11:41:18.222Z,23.02
2022-12-19T11:43:55.233Z,28.30
2022-12-19T11:46:39.641Z,22.15
2022-12-19T11:49:23.497Z,31.30
2022-12-19T11:52:02.273Z,24.23
2022-12-19T11:54:40.948Z,25.92
2022-12-19T11:57:14.741Z,22.77
2022-12-19T12:02:48.298Z,19.33
2022-12-19T12:05:35.913Z,19.63
2022-12-19T12:09:27.053Z,25.85
2022-12-19T12:16:16.098Z,20.20
2022-12-19T12:25:59.704Z,18.45
2022-12-19T12:31:04.118Z,21.40
2022-12-19T12:31:09.555Z,23.02
2022-12-19T12:31:58.824Z,34.22
2022-12-19T12:32:05.788Z,20.88
2022-12-19T12:35:19.930Z,22.63
2022-12-19T12:35:38.192Z,27.58
2022-12-19T12:38:47.154Z,25.52
2022-12-19T12:41:39.582Z,23.25
2022-12-19T12:44:14.886Z,25.23
2022-12-19T12:49:35.851Z,18.70
2022-12-19T12:52:16.365Z,17.50
2022-12-19T12:54:52.236Z,20.58
2022-12-19T12:57:36.488Z,19.27
2022-12-19T13:00:26.953Z,15.82
2022-12-19T13:03:06.890Z,16.33
2022-12-19T13:05:52.803Z,17.95
2022-12-19T13:08:36.919Z,13.73
2022-12-19T13:14:27.928Z,18.67
2022-12-19T13:17:01.544Z,26.20
2022-12-19T13:19:36.493Z,26.23
2022-12-19T13:22:23.211Z,23.23
2022-12-19T13:24:59.943Z,19.17
2022-12-19T13:27:36.089Z,19.33
2022-12-19T13:30:20.342Z,21.63
2022-12-19T13:33:11.097Z,22.30
2022-12-19T13:39:14.835Z,19.33
2022-12-19T13:39:59.500Z,29.10
2022-12-19T13:42:02.862Z,19.88
2022-12-19T13:44:42.189Z,19.80
2022-12-19T13:47:21.907Z,18.70
2022-12-19T13:49:58.220Z,15.98
2022-12-19T13:52:31.375Z,18.80
2022-12-19T13:55:04.770Z,16.95
2022-12-19T13:57:40.392Z,25.77
2022-12-19T14:00:19.137Z,15.57
2022-12-19T14:02:55.697Z,16.20
2022-12-19T14:06:05.793Z,22.20
2022-12-19T14:08:28.720Z,18.27
2022-12-19T14:11:34.885Z,17.95
2022-12-19T14:14:22.060Z,14.95
2022-12-19T14:17:08.164Z,17.83
2022-12-19T14:19:43.441Z,15.30
2022-12-19T14:22:26.442Z,14.57
2022-12-19T14:25:50.206Z,17.70
2022-12-19T14:28:26.483Z,14.32
2022-12-19T14:30:58.601Z,20.92
2022-12-19T14:33:43.423Z,18.15
2022-12-19T14:36:30.218Z,18.70
2022-12-19T14:39:22.941Z,21.20
2022-12-19T14:43:48.087Z,21.25
2022-12-19T14:53:52.728Z,24.17
2022-12-19T14:54:39.878Z,24.80
2022-12-19T14:58:07.919Z,27.50
2022-12-19T15:00:25.809Z,27.35
2022-12-19T15:03:25.634Z,47.70
2022-12-19T15:07:05.659Z,37.05
2022-12-19T15:11:00.184Z,42.88
2022-12-19T15:14:46.650Z,47.78
2022-12-19T15:15:23.551Z,44.38
2022-12-19T15:17:57.214Z,47.40
2022-12-19T15:20:30.799Z,42.80
2022-12-19T15:23:05.353Z,38.60
2022-12-19T15:26:08.180Z,38.85
2022-12-19T15:28:39.920Z,38.83
2022-12-19T15:31:32.319Z,36.53
2022-12-19T15:34:34.096Z,37.58
2022-12-19T15:37:09.380Z,27.83
2022-12-19T15:39:44.981Z,32.85
2022-12-19T15:42:22.320Z,30.58
2022-12-19T15:44:59.894Z,34.72
2022-12-19T15:47:34.987Z,28.58
2022-12-19T15:50:17.634Z,30.13
2022-12-19T15:52:50.983Z,26.95
2022-12-19T15:55:28.410Z,26.48
2022-12-19T15:58:05.082Z,28.65
2022-12-19T16:00:39.416Z,27.25
2022-12-19T16:03:23.902Z,28.23
2022-12-19T16:05:57.946Z,29.10
2022-12-19T16:08:31.672Z,28.15
2022-12-19T16:11:06.324Z,23.33
2022-12-19T16:13:39.525Z,22.83
2022-12-19T16:16:15.652Z,23.48
2022-12-19T16:18:49.729Z,27.27
2022-12-19T16:21:33.306Z,40.00
2022-12-19T16:24:08.108Z,33.03
2022-12-19T16:29:20.134Z,39.75
2022-12-19T16:31:54.016Z,42.92
2022-12-19T16:34:27.158Z,34.03
2022-12-19T16:37:00.304Z,37.60
2022-12-19T16:39:33.551Z,40.53
2022-12-19T16:42:15.861Z,43.00
2022-12-19T16:44:49.734Z,48.17
2022-12-19T16:47:23.413Z,43.15
2022-12-19T16:49:57.424Z,35.95
2022-12-19T16:52:30.621Z,36.13
2022-12-19T16:55:03.776Z,40.05
2022-12-19T16:57:38.409Z,30.75
2022-12-19T17:00:16.117Z,36.78
2022-12-19T17:02:51.635Z,38.35
2022-12-19T17:05:27.333Z,28.77
2022-12-19T17:08:01.193Z,28.08
2022-12-19T17:10:35.147Z,35.88
2022-12-19T17:15:48.621Z,39.70
2022-12-19T17:18:29.695Z,27.10
2022-12-19T17:21:03.261Z,29.08
2022-12-19T17:23:36.552Z,30.00
2022-12-19T17:26:15.749Z,24.52
2022-12-19T17:28:52.150Z,22.77
2022-12-19T17:31:28.517Z,24.13
2022-12-19T17:34:01.908Z,25.48
2022-12-19T17:36:37.898Z,20.65
2022-12-19T17:39:19.768Z,31.10
2022-12-19T17:41:55.479Z,24.05
2022-12-19T17:44:30.171Z,33.63
2022-12-19T17:47:03.630Z,27.30
2022-12-19T17:49:36.879Z,20.50
2022-12-19T17:52:14.811Z,21.60
2022-12-19T17:54:48.506Z,22.25
2022-12-19T17:57:21.666Z,20.17
2022-12-19T17:59:56.200Z,22.38
2022-12-19T18:02:29.833Z,23.13
2022-12-19T18:05:03.803Z,22.02
2022-12-19T18:07:37.009Z,19.67
2022-12-19T18:10:15.826Z,16.10
2022-12-19T18:12:49.493Z,20.45
2022-12-19T18:15:24.632Z,21.77
2022-12-19T18:17:58.933Z,25.85
2022-12-19T18:20:33.613Z,19.23
2022-12-19T18:23:16.550Z,17.38
2022-12-19T18:25:57.595Z,23.42
2022-12-19T18:28:34.625Z,24.23
2022-12-19T18:31:15.906Z,23.58
2022-12-19T18:33:49.922Z,21.45
2022-12-19T18:36:26.129Z,21.13
2022-12-19T18:38:59.351Z,19.92
2022-12-19T18:41:32.494Z,24.35
2022-12-19T18:44:05.885Z,18.55
2022-12-19T18:46:41.342Z,21.13
2022-12-19T18:49:16.910Z,20.30
2022-12-19T18:51:50.339Z,22.20
2022-12-19T18:54:23.911Z,23.85
2022-12-19T18:56:58.139Z,16.65
2022-12-19T18:59:31.263Z,23.35
2022-12-19T19:02:19.801Z,19.25
2022-12-19T19:04:55.705Z,20.75
2022-12-19T19:07:28.900Z,19.58
2022-12-19T19:10:02.448Z,15.65
2022-12-19T19:12:53.706Z,18.98
2022-12-19T19:15:29.984Z,16.38
2022-12-19T19:18:07.871Z,18.55
2022-12-19T19:20:42.692Z,19.83
2022-12-19T19:23:16.494Z,15.60
2022-12-19T19:28:22.981Z,19.98
2022-12-19T19:30:58.493Z,18.35
2022-12-19T19:33:36.924Z,15.25
2022-12-19T19:36:14.580Z,20.58
2022-12-19T19:38:51.602Z,17.30
2022-12-19T19:41:30.011Z,23.52
2022-12-19T19:44:03.834Z,16.73
2022-12-19T19:46:38.025Z,20.48
2022-12-19T19:49:12.708Z,18.10
2022-12-19T19:51:46.052Z,18.85
2022-12-19T19:54:19.555Z,22.45
2022-12-19T19:56:52.887Z,18.10
2022-12-19T19:59:26.184Z,15.57
2022-12-19T20:01:59.694Z,20.65
2022-12-19T20:04:37.512Z,17.17
2022-12-19T20:07:10.849Z,17.50
2022-12-19T20:09:49.038Z,19.55
2022-12-19T20:12:26.273Z,14.68
2022-12-19T20:15:00.095Z,16.10
2022-12-19T20:17:37.986Z,16.05
2022-12-19T20:20:14.114Z,16.08
2022-12-19T20:22:48.356Z,20.30
2022-12-19T20:25:21.657Z,17.58
2022-12-19T20:27:54.834Z,17.00
2022-12-19T20:30:28.314Z,19.70
2022-12-19T20:33:01.636Z,15.65
2022-12-19T20:35:36.792Z,15.30
2022-12-19T20:38:10.038Z,16.90
2022-12-19T20:40:43.291Z,16.67
2022-12-19T20:43:16.513Z,17.17
2022-12-19T20:45:50.032Z,15.85
2022-12-19T20:48:23.442Z,14.60
2022-12-19T20:50:58.978Z,14.40
2022-12-19T20:53:32.534Z,15.40
2022-12-19T20:56:07.646Z,17.05
2022-12-19T20:58:40.939Z,15.43
2022-12-19T21:01:17.543Z,16.20
2022-12-19T21:03:51.704Z,15.18
2022-12-19T21:06:27.219Z,14.40
2022-12-19T21:09:00.417Z,15.50
2022-12-19T21:11:35.662Z,15.82
2022-12-19T21:14:11.069Z,14.80
2022-12-19T21:16:44.318Z,15.07
2022-12-19T21:19:17.596Z,15.93
2022-12-19T21:21:52.136Z,16.35
2022-12-19T21:24:25.299Z,18.02
2022-12-19T21:26:58.556Z,15.90
2022-12-19T21:29:31.795Z,17.08
2022-12-19T21:32:05.111Z,17.48
2022-12-19T21:34:38.446Z,13.75
2022-12-19T21:37:13.027Z,13.88
2022-12-19T21:39:46.242Z,15.13
2022-12-19T21:42:19.524Z,14.70
2022-12-19T21:44:52.672Z,16.52
2022-12-19T21:47:25.958Z,14.13
2022-12-19T21:49:59.113Z,18.25
2022-12-19T21:52:33.818Z,16.50
2022-12-19T21:55:09.112Z,13.30
2022-12-19T21:57:43.366Z,13.43
2022-12-19T22:00:17.440Z,13.77
2022-12-19T22:03:12.693Z,14.70
2022-12-19T22:05:43.887Z,13.88
2022-12-19T22:08:18.537Z,13.85
2022-12-19T22:10:51.761Z,13.23
2022-12-19T22:13:27.470Z,14.30
2022-12-19T22:16:02.610Z,13.77
2022-12-19T22:18:36.365Z,14.25
2022-12-19T22:21:11.989Z,14.10
2022-12-19T22:23:46.958Z,13.52
2022-12-19T22:26:22.109Z,16.15
2022-12-19T22:28:57.318Z,12.95
2022-12-19T22:31:32.853Z,12.00
2022-12-19T22:34:08.349Z,14.73
2022-12-19T22:36:43.350Z,14.73
2022-12-19T22:39:22.720Z,14.65
2022-12-19T22:41:56.163Z,14.50
2022-12-19T22:44:35.189Z,13.68
2022-12-19T22:47:09.095Z,12.48
2022-12-19T22:49:42.698Z,11.60
2022-12-19T22:52:16.107Z,14.90
2022-12-19T22:54:51.479Z,11.43
2022-12-19T22:57:25.355Z,12.20
2022-12-19T23:02:32.524Z,14.00
2022-12-19T23:05:07.127Z,11.88
2022-12-19T23:07:40.317Z,11.70
2022-12-19T23:10:15.005Z,13.23
2022-12-19T23:12:48.197Z,10.93
2022-12-19T23:15:21.732Z,12.25
2022-12-19T23:17:55.359Z,11.98
2022-12-19T23:20:28.504Z,12.30
2022-12-19T23:23:01.844Z,12.13
2022-12-19T23:25:40.092Z,12.70
2022-12-19T23:28:13.249Z,9.52
2022-12-19T23:30:46.619Z,11.57
2022-12-19T23:33:19.838Z,11.45
2022-12-19T23:35:53.453Z,12.45
2022-12-19T23:38:27.161Z,10.55
2022-12-19T23:41:02.301Z,14.77
2022-12-19T23:43:36.558Z,11.07
2022-12-19T23:46:11.672Z,10.27
2022-12-19T23:48:45.661Z,10.70
2022-12-19T23:51:20.747Z,10.18
2022-12-19T23:53:55.235Z,9.93
2022-12-19T23:56:31.264Z,10.88
2022-12-19T23:59:04.642Z,11.00
